Time;durP1;ratioP1;P1;durP2;ratioP2;P2;SDS_P1;SDS_P2;PMS_P1;PMS_P2;Temp;Humidity;BMP_temperature;BMP_pressure;BME280_temperature;BME280_humidity;BME280_pressure;Samples;Min_cycle;Max_cycle;Signal;HPM_P1;HPM_P2
2022/01/21 00:01:36;;;;;;;10.93;2.20;;;2.10;99.90;;;;;;5050051;28;20102;-92
2022/01/21 00:04:02;;;;;;;12.32;2.47;;;2.00;99.90;;;;;;5033804;28;20047;-92
2022/01/21 00:06:28;;;;;;;17.92;3.33;;;2.00;99.90;;;;;;5050777;28;20469;-92
2022/01/21 00:08:54;;;;;;;12.13;2.58;;;2.00;99.90;;;;;;5033842;28;20132;-92
2022/01/21 00:11:22;;;;;;;17.30;2.15;;;2.00;99.90;;;;;;5033799;28;20044;-91
2022/01/21 00:13:48;;;;;;;14.63;2.30;;;2.00;99.90;;;;;;5050603;28;20072;-92
2022/01/21 00:16:17;;;;;;;17.08;2.47;;;2.00;99.90;;;;;;5050439;28;20538;-91
2022/01/21 00:18:52;;;;;;;12.05;1.95;;;2.00;99.90;;;;;;5033985;28;20033;-92
2022/01/21 00:32:13;;;;;;;18.10;3.40;;;1.90;99.90;;;;;;5049776;28;20045;-92
2022/01/21 00:34:39;;;;;;;12.68;2.63;;;2.00;99.90;;;;;;5033432;28;20037;-91
2022/01/21 00:37:05;;;;;;;16.52;2.50;;;2.00;99.90;;;;;;5050236;28;20033;-92
2022/01/21 00:39:33;;;;;;;14.98;3.22;;;2.00;99.90;;;;;;5033846;28;20136;-91
2022/01/21 00:44:24;;;;;;;14.65;2.90;;;2.00;99.90;;;;;;5050031;28;20056;-91
2022/01/21 00:46:49;;;;;;;14.82;2.38;;;2.00;99.90;;;;;;5033329;28;20048;-91
2022/01/21 00:49:16;;;;;;;15.45;3.08;;;2.10;99.90;;;;;;5033389;28;20041;-90
2022/01/21 00:51:42;;;;;;;17.15;3.03;;;2.10;99.90;;;;;;5049501;28;20325;-90
2022/01/21 00:54:08;;;;;;;19.50;2.97;;;2.10;99.90;;;;;;5049912;28;20502;-90
2022/01/21 00:56:34;;;;;;;12.70;1.98;;;2.10;99.90;;;;;;5049941;28;20120;-90
2022/01/21 00:58:59;;;;;;;16.75;2.80;;;2.20;99.90;;;;;;5050172;28;20059;-91
2022/01/21 01:01:25;;;;;;;17.17;2.45;;;2.20;99.90;;;;;;5050346;28;20069;-91
2022/01/21 01:03:50;;;;;;;13.73;2.42;;;2.30;99.90;;;;;;5053994;28;20056;-91
2022/01/21 01:06:16;;;;;;;14.27;2.92;;;2.30;99.90;;;;;;5053768;28;20044;-92
2022/01/21 01:08:42;;;;;;;15.90;2.80;;;2.30;99.90;;;;;;5053649;28;20097;-91
2022/01/21 01:21:44;;;;;;;16.75;3.42;;;2.50;99.90;;;;;;5053193;28;20033;-91
2022/01/21 01:29:24;;;;;;;15.90;2.72;;;2.50;99.90;;;;;;5053269;28;20427;-92
2022/01/21 01:31:51;;;;;;;13.25;2.25;;;2.50;99.90;;;;;;5052856;28;20044;-92
2022/01/21 01:34:16;;;;;;;12.18;2.08;;;2.50;99.90;;;;;;5036538;28;20124;-92
2022/01/21 01:36:44;;;;;;;12.93;2.13;;;2.50;99.90;;;;;;5052972;28;20120;-91
2022/01/21 01:39:29;;;;;;;16.50;2.75;;;2.50;99.90;;;;;;5053196;28;20136;-91
2022/01/21 01:42:26;;;;;;;13.02;2.13;;;2.60;99.90;;;;;;5036287;28;20040;-91
2022/01/21 01:50:34;;;;;;;15.90;3.05;;;2.60;99.90;;;;;;5052677;28;20132;-92
2022/01/21 01:53:00;;;;;;;14.10;2.22;;;2.70;99.90;;;;;;5052175;28;20048;-91
2022/01/21 01:55:26;;;;;;;11.65;2.35;;;2.70;99.90;;;;;;5052594;28;20044;-91
2022/01/21 01:57:52;;;;;;;10.93;2.35;;;2.70;99.90;;;;;;5052619;28;20032;-91
2022/01/21 02:00:18;;;;;;;13.27;2.28;;;2.70;99.90;;;;;;5035753;28;20045;-91
2022/01/21 02:02:43;;;;;;;15.93;2.10;;;2.80;99.90;;;;;;5052147;28;20414;-91
2022/01/21 02:05:09;;;;;;;9.98;1.98;;;2.80;99.90;;;;;;5052558;28;20045;-91
2022/01/21 02:07:35;;;;;;;13.98;2.55;;;2.80;99.90;;;;;;5052889;28;20040;-92
2022/01/21 02:10:00;;;;;;;12.02;1.65;;;2.80;99.90;;;;;;5052594;28;20132;-92
2022/01/21 02:12:26;;;;;;;12.00;1.80;;;2.80;99.90;;;;;;5034891;28;20052;-92
2022/01/21 02:14:54;;;;;;;11.88;1.70;;;2.80;99.90;;;;;;5052071;28;20029;-91
2022/01/21 02:22:59;;;;;;;12.40;2.47;;;2.80;99.90;;;;;;5054084;28;20087;-92
2022/01/21 02:25:24;;;;;;;14.68;2.63;;;2.80;99.90;;;;;;5054531;28;20552;-91
2022/01/21 02:27:53;;;;;;;11.07;1.90;;;2.80;99.90;;;;;;5054266;28;20071;-91
2022/01/21 02:30:21;;;;;;;10.00;1.98;;;2.80;99.90;;;;;;5054427;28;20049;-92
2022/01/21 02:32:52;;;;;;;11.45;2.17;;;2.90;99.90;;;;;;5037366;28;20072;-92
2022/01/21 02:35:19;;;;;;;12.60;1.90;;;2.90;99.90;;;;;;5037446;28;20048;-91
2022/01/21 02:37:47;;;;;;;16.65;2.97;;;2.90;99.90;;;;;;5037644;28;20045;-91
2022/01/21 02:40:13;;;;;;;14.10;2.03;;;2.90;99.90;;;;;;5036980;28;20045;-91
2022/01/21 02:42:39;;;;;;;11.18;1.75;;;2.90;99.90;;;;;;5053921;28;20059;-91
2022/01/21 02:45:07;;;;;;;9.32;2.08;;;2.90;99.90;;;;;;5053691;28;20549;-91
2022/01/21 02:47:33;;;;;;;12.75;1.88;;;2.90;99.90;;;;;;5054030;28;20448;-91
2022/01/21 02:49:58;;;;;;;11.75;1.83;;;2.80;99.90;;;;;;5054046;28;20567;-91
2022/01/21 02:52:28;;;;;;;8.88;1.63;;;2.80;99.90;;;;;;5053550;28;20576;-91
2022/01/21 02:54:53;;;;;;;10.32;1.80;;;2.90;99.90;;;;;;5051552;28;20063;-91
2022/01/21 02:57:19;;;;;;;12.85;2.13;;;2.90;99.90;;;;;;5035066;28;20402;-91
2022/01/21 02:59:45;;;;;;;10.93;1.70;;;2.90;99.90;;;;;;5051271;28;20037;-91
2022/01/21 03:02:11;;;;;;;13.35;1.63;;;2.90;99.90;;;;;;5032126;28;20097;-91
2022/01/21 03:04:55;;;;;;;10.25;2.03;;;2.90;99.90;;;;;;5048686;28;20087;-91
2022/01/21 03:07:20;;;;;;;10.00;1.67;;;3.00;99.90;;;;;;5047718;28;20044;-91
2022/01/21 03:09:46;;;;;;;9.48;1.52;;;3.00;99.90;;;;;;5051588;28;20041;-91
2022/01/21 03:12:12;;;;;;;10.20;1.98;;;3.00;99.90;;;;;;5034600;28;20538;-92
2022/01/21 03:14:37;;;;;;;10.75;1.42;;;3.00;99.90;;;;;;5051443;28;20403;-91
2022/01/21 03:17:03;;;;;;;9.75;1.58;;;3.00;99.90;;;;;;5051353;28;20090;-91
2022/01/21 03:19:29;;;;;;;9.85;2.40;;;3.00;99.90;;;;;;5051274;28;20120;-92
2022/01/21 03:21:54;;;;;;;11.02;1.65;;;3.10;99.90;;;;;;5050579;28;20037;-91
2022/01/21 03:24:20;;;;;;;10.82;1.95;;;3.10;99.90;;;;;;5050727;28;20051;-91
2022/01/21 03:26:45;;;;;;;9.07;1.35;;;3.00;99.90;;;;;;5034403;28;20048;-91
2022/01/21 03:29:11;;;;;;;14.23;1.50;;;3.00;99.90;;;;;;5050850;28;20120;-92
2022/01/21 03:31:36;;;;;;;7.03;1.70;;;3.00;99.90;;;;;;5050644;28;20049;-93
2022/01/21 03:34:03;;;;;;;10.10;1.58;;;3.00;99.90;;;;;;5050831;28;20041;-92
2022/01/21 03:36:30;;;;;;;8.00;1.20;;;3.00;99.90;;;;;;5034662;28;20398;-92
2022/01/21 03:38:55;;;;;;;9.68;1.60;;;3.00;99.90;;;;;;5034156;28;20060;-93
2022/01/21 03:41:21;;;;;;;7.75;1.17;;;3.00;99.90;;;;;;5034264;28;20044;-92
2022/01/21 03:43:50;;;;;;;7.13;1.48;;;3.00;99.90;;;;;;5034345;28;20048;-92
2022/01/21 03:46:17;;;;;;;8.32;1.77;;;3.00;99.90;;;;;;5034139;28;20077;-90
2022/01/21 03:48:47;;;;;;;8.35;1.80;;;3.00;99.90;;;;;;5050849;28;20045;-91
2022/01/21 03:51:13;;;;;;;6.30;1.52;;;3.00;99.90;;;;;;5050296;28;20076;-91
2022/01/21 03:53:38;;;;;;;6.15;1.42;;;2.90;99.90;;;;;;5033548;28;20087;-91
2022/01/21 03:56:04;;;;;;;10.57;1.75;;;2.80;99.90;;;;;;5050553;28;20072;-90
2022/01/21 03:58:30;;;;;;;8.35;1.58;;;2.80;99.90;;;;;;5050489;28;20448;-91
2022/01/21 04:00:56;;;;;;;14.13;1.95;;;2.80;99.90;;;;;;5050522;28;20075;-90
2022/01/21 04:03:22;;;;;;;10.38;1.85;;;2.70;99.90;;;;;;5050079;28;20033;-90
2022/01/21 04:05:49;;;;;;;10.98;1.77;;;2.70;99.90;;;;;;5050284;28;20039;-89
2022/01/21 04:08:15;;;;;;;8.13;1.35;;;2.70;99.90;;;;;;5050648;28;20520;-91
2022/01/21 04:10:42;;;;;;;11.10;1.80;;;2.70;99.90;;;;;;5050245;28;20095;-90
2022/01/21 04:13:15;;;;;;;10.75;1.70;;;2.70;99.90;;;;;;5050264;28;20041;-90
2022/01/21 04:15:43;;;;;;;6.38;1.42;;;2.70;99.90;;;;;;5050255;28;20414;-90
2022/01/21 04:18:09;;;;;;;5.22;1.02;;;2.70;99.90;;;;;;5033684;28;20090;-90
2022/01/21 04:20:34;;;;;;;8.35;1.08;;;2.60;99.90;;;;;;5050263;28;20041;-92
2022/01/21 04:23:00;;;;;;;6.97;1.38;;;2.60;99.90;;;;;;5033332;28;20129;-92
2022/01/21 04:25:25;;;;;;;7.60;2.08;;;2.70;99.90;;;;;;5033837;28;20044;-93
2022/01/21 04:27:51;;;;;;;9.95;1.95;;;2.70;99.90;;;;;;5033891;28;20048;-92
2022/01/21 04:30:17;;;;;;;9.13;1.30;;;2.70;99.90;;;;;;5033802;28;20084;-92
2022/01/21 04:32:42;;;;;;;8.40;1.20;;;2.70;99.90;;;;;;5033736;28;20098;-92
2022/01/21 04:35:08;;;;;;;10.23;1.70;;;2.80;99.90;;;;;;5050207;28;20514;-92
2022/01/21 04:37:36;;;;;;;9.52;1.48;;;2.80;99.90;;;;;;5036758;28;20041;-92
2022/01/21 04:40:10;;;;;;;7.65;1.40;;;2.80;99.90;;;;;;5054029;28;20055;-92
2022/01/21 04:48:05;;;;;;;7.90;1.33;;;2.80;99.90;;;;;;5054250;28;20522;-92
2022/01/21 04:50:39;;;;;;;7.97;1.40;;;2.80;99.90;;;;;;5037794;28;20037;-92
2022/01/21 04:53:06;;;;;;;5.55;1.05;;;2.80;99.90;;;;;;5037095;28;20055;-92
2022/01/21 04:55:33;;;;;;;7.75;1.42;;;2.80;99.90;;;;;;5053620;28;20041;-93
2022/01/21 04:57:59;;;;;;;9.15;1.85;;;2.70;99.90;;;;;;5037544;28;20410;-92
2022/01/21 05:00:24;;;;;;;9.88;1.98;;;2.70;99.90;;;;;;5053737;28;20033;-93
2022/01/21 05:02:50;;;;;;;10.13;1.70;;;2.70;99.90;;;;;;5053284;28;20033;-91
2022/01/21 05:05:15;;;;;;;11.70;1.75;;;2.60;99.90;;;;;;5032225;28;20103;-92
2022/01/21 05:07:42;;;;;;;11.90;1.90;;;2.60;99.90;;;;;;5017255;28;20509;-92
2022/01/21 05:10:08;;;;;;;11.88;1.83;;;2.50;99.90;;;;;;5033531;28;20045;-91
2022/01/21 05:12:34;;;;;;;14.57;2.22;;;2.50;99.90;;;;;;5033151;28;20041;-92
2022/01/21 05:17:28;;;;;;;9.48;1.88;;;2.50;99.90;;;;;;5033981;28;20045;-90
2022/01/21 05:19:53;;;;;;;18.58;2.45;;;2.50;99.90;;;;;;5033410;28;20091;-92
2022/01/21 05:22:19;;;;;;;13.20;2.17;;;2.50;99.90;;;;;;5032660;28;20041;-91
2022/01/21 05:24:44;;;;;;;14.05;1.85;;;2.40;99.90;;;;;;5033558;28;20029;-92
2022/01/21 05:27:12;;;;;;;9.25;2.25;;;2.40;99.90;;;;;;5016930;28;20569;-92
2022/01/21 05:29:39;;;;;;;10.30;1.40;;;2.40;99.90;;;;;;5033544;28;20045;-92
2022/01/21 05:32:06;;;;;;;13.23;2.05;;;2.40;99.90;;;;;;5016764;28;20088;-92
2022/01/21 05:34:32;;;;;;;8.15;1.63;;;2.30;99.90;;;;;;5016637;28;20045;-91
2022/01/21 05:36:58;;;;;;;16.48;2.15;;;2.30;99.90;;;;;;5016510;28;20164;-90
2022/01/21 05:39:23;;;;;;;13.07;1.75;;;2.30;99.90;;;;;;5032917;28;20120;-91
2022/01/21 05:41:51;;;;;;;9.27;1.95;;;2.30;99.90;;;;;;5032356;28;20041;-92
2022/01/21 05:46:55;;;;;;;9.80;1.88;;;2.30;99.90;;;;;;5032140;28;20128;-91
2022/01/21 05:49:26;;;;;;;9.88;1.67;;;2.30;99.90;;;;;;5032181;28;20041;-91
2022/01/21 05:52:03;;;;;;;15.43;2.17;;;2.30;99.90;;;;;;5032071;28;20054;-91
2022/01/21 05:54:29;;;;;;;11.02;2.00;;;2.30;99.90;;;;;;5031989;28;20518;-92
2022/01/21 05:56:55;;;;;;;11.90;2.00;;;2.30;99.90;;;;;;5015810;28;20518;-91
2022/01/21 05:59:21;;;;;;;13.15;2.10;;;2.30;99.90;;;;;;5032420;28;20041;-91
2022/01/21 06:01:47;;;;;;;10.43;1.85;;;2.30;99.90;;;;;;5031818;28;20044;-92
2022/01/21 06:04:13;;;;;;;9.00;1.90;;;2.30;99.90;;;;;;5032143;28;20034;-90
2022/01/21 06:06:38;;;;;;;14.23;2.08;;;2.30;99.90;;;;;;5032289;28;20098;-91
2022/01/21 06:09:05;;;;;;;10.30;2.03;;;2.30;99.90;;;;;;5015469;28;20052;-91
2022/01/21 06:11:30;;;;;;;11.98;1.75;;;2.30;99.90;;;;;;5031643;28;20041;-90
2022/01/21 06:13:56;;;;;;;10.57;2.28;;;2.30;99.90;;;;;;5031907;28;20103;-91
2022/01/21 06:16:22;;;;;;;13.60;1.58;;;2.30;99.90;;;;;;5031805;28;20398;-91
2022/01/21 06:18:48;;;;;;;10.63;1.70;;;2.20;99.90;;;;;;5031990;28;20041;-91
2022/01/21 06:21:14;;;;;;;12.48;1.90;;;2.20;99.90;;;;;;5031534;28;20525;-91
2022/01/21 06:23:40;;;;;;;10.43;1.52;;;2.20;99.90;;;;;;5031444;28;20087;-90
2022/01/21 06:26:05;;;;;;;10.80;1.88;;;2.20;99.90;;;;;;5031740;28;20037;-92
2022/01/21 06:28:31;;;;;;;9.05;1.70;;;2.10;99.90;;;;;;5031605;28;20044;-90
2022/01/21 06:30:56;;;;;;;10.30;1.73;;;2.20;99.90;;;;;;5031942;28;20505;-91
2022/01/21 06:33:22;;;;;;;8.20;1.60;;;2.20;99.90;;;;;;5031136;28;20402;-91
2022/01/21 06:35:50;;;;;;;12.82;1.98;;;2.20;99.90;;;;;;5015182;28;20049;-90
2022/01/21 06:38:16;;;;;;;11.27;1.83;;;2.20;99.90;;;;;;5030530;28;20425;-90
2022/01/21 06:40:42;;;;;;;8.63;1.48;;;2.30;99.90;;;;;;5043972;28;20045;-90
2022/01/21 06:43:08;;;;;;;10.60;1.83;;;2.20;99.90;;;;;;5051287;28;20045;-91
2022/01/21 06:45:34;;;;;;;6.15;1.35;;;2.20;99.90;;;;;;5051494;28;20065;-91
2022/01/21 06:48:02;;;;;;;14.27;2.33;;;2.20;99.90;;;;;;5051769;28;20071;-91
2022/01/21 06:50:28;;;;;;;13.27;1.83;;;2.20;99.90;;;;;;5051379;28;20086;-92
2022/01/21 06:52:54;;;;;;;11.82;1.95;;;2.30;99.90;;;;;;5051054;28;20037;-93
2022/01/21 06:55:20;;;;;;;13.98;2.33;;;2.30;99.90;;;;;;5051671;28;20178;-94
2022/01/21 06:57:45;;;;;;;12.32;1.88;;;2.30;99.90;;;;;;5051204;28;20043;-91
2022/01/21 07:00:16;;;;;;;10.75;1.73;;;2.30;99.90;;;;;;5050603;28;20106;-92
2022/01/21 07:02:41;;;;;;;11.68;1.83;;;2.30;99.90;;;;;;5050821;28;20114;-92
2022/01/21 07:05:08;;;;;;;10.77;1.77;;;2.30;99.90;;;;;;5051340;28;20075;-93
2022/01/21 07:07:34;;;;;;;12.23;1.98;;;2.30;99.90;;;;;;5051398;28;20040;-93
2022/01/21 07:10:01;;;;;;;9.48;1.58;;;2.40;99.90;;;;;;5050987;28;20041;-92
2022/01/21 07:12:27;;;;;;;9.40;1.58;;;2.40;99.90;;;;;;5050920;28;20171;-91
2022/01/21 07:14:53;;;;;;;11.93;1.58;;;2.40;99.90;;;;;;5050946;28;20450;-91
2022/01/21 07:17:19;;;;;;;9.18;2.45;;;2.40;99.90;;;;;;5051206;28;20041;-92
2022/01/21 07:19:44;;;;;;;12.93;1.67;;;2.40;99.90;;;;;;5050549;28;20029;-92
2022/01/21 07:22:10;;;;;;;10.95;1.67;;;2.40;99.90;;;;;;5050908;28;20458;-91
2022/01/21 07:24:36;;;;;;;9.50;1.88;;;2.50;99.90;;;;;;5051109;28;20503;-91
2022/01/21 07:27:01;;;;;;;12.85;1.83;;;2.50;99.90;;;;;;5050832;28;20120;-92
2022/01/21 07:29:27;;;;;;;13.82;1.95;;;2.50;99.90;;;;;;5050897;28;20131;-92
2022/01/21 07:31:54;;;;;;;11.88;1.92;;;2.50;99.90;;;;;;5050235;28;20037;-92
2022/01/21 07:34:21;;;;;;;13.68;1.85;;;2.50;99.90;;;;;;5050842;28;20048;-91
2022/01/21 07:36:47;;;;;;;16.50;2.22;;;2.50;99.90;;;;;;5050483;28;20044;-92
2022/01/21 07:39:13;;;;;;;14.10;1.67;;;2.50;99.90;;;;;;5050724;28;20041;-94
2022/01/21 07:41:38;;;;;;;11.70;1.75;;;2.50;99.90;;;;;;5049967;28;20043;-93
2022/01/21 07:44:04;;;;;;;11.75;1.80;;;2.50;99.90;;;;;;5050875;28;20529;-92
2022/01/21 07:46:30;;;;;;;9.07;1.60;;;2.50;99.90;;;;;;5050705;28;20041;-93
2022/01/21 07:48:57;;;;;;;12.05;2.10;;;2.50;99.90;;;;;;5050478;28;20044;-93
2022/01/21 07:51:23;;;;;;;11.98;1.90;;;2.50;99.90;;;;;;5050169;28;20045;-95
2022/01/21 07:53:49;;;;;;;14.50;2.20;;;2.50;99.90;;;;;;5050157;28;20044;-91
2022/01/21 07:56:14;;;;;;;9.57;1.67;;;2.50;99.90;;;;;;5050048;28;20040;-92
2022/01/21 07:58:40;;;;;;;12.00;2.03;;;2.50;99.90;;;;;;5050686;28;20075;-91
2022/01/21 08:01:05;;;;;;;12.48;2.40;;;2.50;99.90;;;;;;5050351;28;20461;-92
2022/01/21 08:03:31;;;;;;;9.15;2.30;;;2.50;99.90;;;;;;5049718;28;20059;-93
2022/01/21 08:05:57;;;;;;;13.02;2.78;;;2.40;99.90;;;;;;5050349;28;20048;-92
2022/01/21 08:08:24;;;;;;;9.02;2.15;;;2.40;99.90;;;;;;5050357;28;20033;-93
2022/01/21 08:10:50;;;;;;;13.00;2.22;;;2.40;99.90;;;;;;5049557;28;20041;-94
2022/01/21 08:13:15;;;;;;;8.45;2.00;;;2.40;99.90;;;;;;5050111;28;20033;-95
2022/01/21 08:15:41;;;;;;;9.82;1.83;;;2.40;99.90;;;;;;5050486;28;20045;-94
2022/01/21 08:18:07;;;;;;;14.65;2.58;;;2.40;99.90;;;;;;5050214;28;20052;-93
2022/01/21 08:20:32;;;;;;;8.10;2.08;;;2.40;99.90;;;;;;5048746;28;20451;-93
2022/01/21 08:22:58;;;;;;;15.23;2.28;;;2.50;99.90;;;;;;5047711;28;20553;-94
2022/01/21 08:25:24;;;;;;;11.63;2.20;;;2.50;99.90;;;;;;5050429;28;20068;-93
2022/01/21 08:27:50;;;;;;;9.02;2.05;;;2.50;99.90;;;;;;5049963;28;20128;-93
2022/01/21 08:30:16;;;;;;;10.93;2.00;;;2.50;99.90;;;;;;5050191;28;20068;-92
2022/01/21 08:32:41;;;;;;;7.78;1.63;;;2.50;99.90;;;;;;5049949;28;20116;-94
2022/01/21 08:35:09;;;;;;;13.80;2.13;;;2.50;99.90;;;;;;5048092;28;20056;-92
2022/01/21 08:37:35;;;;;;;14.27;1.77;;;2.50;99.90;;;;;;5046600;28;20041;-94
2022/01/21 08:40:01;;;;;;;14.65;2.40;;;2.60;99.90;;;;;;5047221;28;20040;-92
2022/01/21 08:42:27;;;;;;;11.02;1.77;;;2.60;99.90;;;;;;5049829;28;20037;-93
2022/01/21 08:44:53;;;;;;;10.90;2.45;;;2.60;99.90;;;;;;5033589;28;20032;-93
2022/01/21 08:47:21;;;;;;;12.27;1.90;;;2.60;99.90;;;;;;5033399;28;20045;-94
2022/01/21 08:49:48;;;;;;;10.43;1.73;;;2.60;99.90;;;;;;5033314;28;20044;-94
2022/01/21 08:52:19;;;;;;;10.55;1.98;;;2.70;99.90;;;;;;5032849;28;20080;-91
2022/01/21 08:54:46;;;;;;;11.00;1.95;;;2.70;99.90;;;;;;5050156;28;20041;-93
2022/01/21 08:57:13;;;;;;;12.85;2.15;;;2.70;99.90;;;;;;5050239;28;20037;-93
2022/01/21 08:59:38;;;;;;;14.23;2.40;;;2.80;99.90;;;;;;5049760;28;20091;-93
2022/01/21 09:02:04;;;;;;;11.65;2.60;;;2.80;99.90;;;;;;5049169;28;20049;-91
2022/01/21 09:04:29;;;;;;;12.45;2.08;;;2.90;99.90;;;;;;5050047;28;20052;-93
2022/01/21 09:06:56;;;;;;;13.23;2.65;;;2.90;99.90;;;;;;5049786;28;20553;-93
2022/01/21 09:09:21;;;;;;;10.38;1.85;;;2.90;99.90;;;;;;5049738;28;20072;-94
2022/01/21 09:11:47;;;;;;;11.02;1.80;;;3.00;99.90;;;;;;5032775;28;20083;-94
2022/01/21 09:14:12;;;;;;;11.02;2.35;;;3.10;99.90;;;;;;5049704;28;20562;-91
2022/01/21 09:16:39;;;;;;;11.38;2.00;;;3.20;99.90;;;;;;5049830;28;20075;-92
2022/01/21 09:19:05;;;;;;;9.10;1.80;;;3.30;99.90;;;;;;5049569;28;20387;-92
2022/01/21 09:21:34;;;;;;;15.23;3.50;;;3.30;99.90;;;;;;5049300;28;20041;-92
2022/01/21 09:24:00;;;;;;;11.90;3.95;;;3.30;99.90;;;;;;5053115;28;20564;-93
2022/01/21 09:26:26;;;;;;;14.45;2.53;;;3.30;99.90;;;;;;5036188;28;20044;-92
2022/01/21 09:28:52;;;;;;;11.18;2.45;;;3.40;99.90;;;;;;5053211;28;20406;-93
2022/01/21 09:31:19;;;;;;;15.05;2.05;;;3.40;99.90;;;;;;5053442;28;20410;-94
2022/01/21 09:33:45;;;;;;;11.73;2.08;;;3.40;99.90;;;;;;5052548;28;20087;-94
2022/01/21 09:36:12;;;;;;;16.48;2.33;;;3.40;99.90;;;;;;5035093;28;20504;-94
2022/01/21 09:38:38;;;;;;;16.55;2.60;;;3.50;99.90;;;;;;5035002;28;20513;-93
2022/01/21 09:41:05;;;;;;;13.68;2.30;;;3.50;99.90;;;;;;5033148;28;20124;-94
2022/01/21 09:43:33;;;;;;;11.43;2.45;;;3.60;99.90;;;;;;5016543;28;20033;-94
2022/01/21 09:46:04;;;;;;;12.30;2.85;;;3.60;99.90;;;;;;5033120;28;20522;-94
2022/01/21 09:48:35;;;;;;;12.82;2.58;;;3.60;99.90;;;;;;5016682;28;20502;-94
2022/01/21 09:51:02;;;;;;;13.30;2.88;;;3.70;99.90;;;;;;5032965;28;20045;-91
2022/01/21 09:53:33;;;;;;;13.65;2.25;;;3.70;99.90;;;;;;5032215;28;20050;-93
2022/01/21 09:56:00;;;;;;;17.98;2.53;;;3.80;99.90;;;;;;5032985;28;20047;-91
2022/01/21 09:58:28;;;;;;;15.00;2.83;;;3.80;99.90;;;;;;5032780;28;20041;-93
2022/01/21 10:00:56;;;;;;;15.13;2.60;;;3.90;99.90;;;;;;5015458;28;20118;-93
2022/01/21 10:03:23;;;;;;;20.55;3.78;;;4.00;99.90;;;;;;5035769;28;20037;-93
2022/01/21 10:05:49;;;;;;;15.90;2.47;;;4.10;99.90;;;;;;5035819;28;20098;-92
2022/01/21 10:08:16;;;;;;;12.82;2.40;;;4.20;99.90;;;;;;5052792;28;20049;-93
2022/01/21 10:10:43;;;;;;;17.77;2.78;;;4.20;99.90;;;;;;5052389;28;20044;-93
2022/01/21 10:13:13;;;;;;;12.32;2.30;;;4.30;99.90;;;;;;5050722;28;20045;-93
2022/01/21 10:15:39;;;;;;;15.90;2.55;;;4.40;99.90;;;;;;5052416;28;20048;-94
2022/01/21 10:18:13;;;;;;;18.60;3.25;;;4.40;99.90;;;;;;5052640;28;20052;-93
2022/01/21 10:21:07;;;;;;;16.77;3.42;;;4.40;99.90;;;;;;5035578;28;20040;-94
2022/01/21 10:23:39;;;;;;;15.68;2.90;;;4.50;99.90;;;;;;5035236;28;20398;-91
2022/01/21 10:26:10;;;;;;;14.30;2.72;;;4.60;99.90;;;;;;5052122;28;20120;-91
2022/01/21 10:28:37;;;;;;;14.95;3.03;;;4.60;99.90;;;;;;5052070;28;20114;-91
2022/01/21 10:31:17;;;;;;;16.85;3.13;;;4.70;99.90;;;;;;5035499;28;20067;-92
2022/01/21 10:33:56;;;;;;;16.75;2.55;;;4.90;99.90;;;;;;5050858;28;20037;-93
2022/01/21 10:36:27;;;;;;;17.65;2.63;;;5.00;99.90;;;;;;5051929;28;20094;-91
2022/01/21 10:39:02;;;;;;;9.50;2.22;;;5.10;99.90;;;;;;5035087;28;20292;-93
2022/01/21 10:41:34;;;;;;;13.48;2.55;;;5.30;99.90;;;;;;5051528;28;20037;-93
2022/01/21 10:44:10;;;;;;;14.82;1.75;;;5.30;99.90;;;;;;5035557;28;20088;-92
2022/01/21 10:46:37;;;;;;;13.65;2.58;;;5.40;99.90;;;;;;5051661;28;20127;-92
2022/01/21 10:49:08;;;;;;;14.23;2.72;;;5.40;99.90;;;;;;5035236;28;20123;-92
2022/01/21 10:51:37;;;;;;;13.15;2.67;;;5.40;99.90;;;;;;5051091;28;20111;-94
2022/01/21 10:54:32;;;;;;;15.70;2.25;;;5.40;99.90;;;;;;5051665;28;20037;-93
2022/01/21 10:57:18;;;;;;;10.73;2.17;;;5.50;99.90;;;;;;5050014;28;20051;-94
2022/01/21 10:59:54;;;;;;;9.35;2.28;;;5.50;99.90;;;;;;5050872;28;20041;-93
2022/01/21 11:02:36;;;;;;;13.63;2.85;;;5.50;99.90;;;;;;5048938;28;20080;-92
2022/01/21 11:05:13;;;;;;;12.30;2.55;;;5.50;99.90;;;;;;5049445;28;20037;-94
2022/01/21 11:08:01;;;;;;;17.25;2.90;;;5.60;99.90;;;;;;5050373;28;20421;-93
2022/01/21 11:10:36;;;;;;;16.02;3.03;;;5.70;99.90;;;;;;5050431;28;20498;-94
2022/01/21 11:13:18;;;;;;;14.75;2.03;;;5.80;99.90;;;;;;5033741;28;20037;-93
2022/01/21 11:15:55;;;;;;;13.63;2.15;;;5.80;99.90;;;;;;5050750;28;20080;-93
2022/01/21 11:18:22;;;;;;;11.88;2.40;;;5.90;99.90;;;;;;5034500;28;20033;-92
2022/01/21 11:21:09;;;;;;;15.82;3.17;;;6.00;99.90;;;;;;5034569;28;20033;-92
2022/01/21 11:23:37;;;;;;;16.83;2.92;;;6.00;99.90;;;;;;5051087;28;20041;-91
2022/01/21 11:26:08;;;;;;;17.52;3.60;;;6.10;99.90;;;;;;5051252;28;20041;-92
2022/01/21 11:28:39;;;;;;;15.23;2.50;;;6.10;99.90;;;;;;5034187;28;20033;-92
2022/01/21 11:31:05;;;;;;;15.25;2.72;;;6.20;99.90;;;;;;5051016;28;20094;-92
2022/01/21 11:33:31;;;;;;;14.13;2.88;;;6.20;99.90;;;;;;5050819;28;20045;-92
2022/01/21 11:35:57;;;;;;;16.00;2.83;;;6.20;99.90;;;;;;5050868;28;20053;-93
2022/01/21 11:38:24;;;;;;;12.88;2.70;;;6.20;99.90;;;;;;5050825;28;20033;-92
2022/01/21 11:40:52;;;;;;;14.13;2.30;;;6.20;99.90;;;;;;5050877;28;20044;-91
2022/01/21 11:43:18;;;;;;;16.35;2.92;;;6.20;99.90;;;;;;5034008;28;20041;-92
2022/01/21 11:48:50;;;;;;;17.88;2.45;;;6.30;99.90;;;;;;5050889;28;20048;-92
2022/01/21 11:51:32;;;;;;;15.18;2.55;;;6.40;99.90;;;;;;5050343;28;20051;-92
2022/01/21 11:54:01;;;;;;;16.73;2.55;;;6.50;99.90;;;;;;5043769;28;20044;-93
2022/01/21 11:56:48;;;;;;;18.50;2.97;;;6.50;99.90;;;;;;5035857;28;20119;-92
2022/01/21 12:01:52;;;;;;;19.17;2.90;;;6.50;99.90;;;;;;5029016;28;20037;-93
2022/01/21 12:04:29;;;;;;;13.15;2.78;;;6.50;99.90;;;;;;5013912;28;20483;-92
2022/01/21 12:07:00;;;;;;;16.20;3.30;;;6.40;99.90;;;;;;5030076;28;20045;-92
2022/01/21 12:09:57;;;;;;;17.58;2.92;;;6.40;99.90;;;;;;5030335;28;20418;-92
2022/01/21 12:12:25;;;;;;;17.33;3.72;;;6.50;99.90;;;;;;5013816;28;20047;-94
2022/01/21 12:14:59;;;;;;;17.92;3.13;;;6.50;99.90;;;;;;5030180;28;20471;-93
2022/01/21 12:17:50;;;;;;;15.38;2.90;;;6.60;99.90;;;;;;5030467;28;20052;-91
2022/01/21 12:20:16;;;;;;;16.92;3.47;;;6.60;99.90;;;;;;5029795;28;20042;-92
2022/01/21 12:22:41;;;;;;;16.98;3.00;;;6.60;99.90;;;;;;5030047;28;20037;-93
2022/01/21 12:25:13;;;;;;;16.10;3.10;;;6.60;99.90;;;;;;5029947;28;20502;-92
2022/01/21 12:27:59;;;;;;;16.37;3.10;;;6.60;99.90;;;;;;5030373;28;20048;-92
2022/01/21 12:30:28;;;;;;;16.25;2.90;;;6.60;99.90;;;;;;5029895;28;20041;-93
2022/01/21 12:32:57;;;;;;;21.42;3.55;;;6.60;99.90;;;;;;5029352;28;20053;-93
2022/01/21 12:35:23;;;;;;;15.38;3.17;;;6.60;99.90;;;;;;5029638;28;20553;-91
2022/01/21 12:39:06;;;;;;;16.90;3.30;;;6.70;99.90;;;;;;5034910;28;20037;-92
2022/01/21 12:41:04;;;;;;;12.77;2.80;;;6.70;99.90;;;;;;5040097;28;20064;-92
2022/01/21 12:44:00;;;;;;;15.45;3.33;;;6.70;99.90;;;;;;5038270;28;20037;-92
2022/01/21 12:46:27;;;;;;;15.05;2.25;;;6.80;99.90;;;;;;5032955;28;20041;-92
2022/01/21 12:48:54;;;;;;;12.43;2.97;;;6.80;99.90;;;;;;5025423;28;20045;-93
2022/01/21 12:56:47;;;;;;;13.00;2.40;;;6.90;99.90;;;;;;5041690;28;20065;-92
2022/01/21 12:59:18;;;;;;;15.38;3.20;;;6.90;99.90;;;;;;5049485;28;20041;-91
2022/01/21 13:01:45;;;;;;;14.85;2.50;;;6.90;99.90;;;;;;5023709;28;20375;-93
2022/01/21 13:04:36;;;;;;;16.27;2.63;;;7.00;99.90;;;;;;5042413;28;20047;-93
2022/01/21 13:07:11;;;;;;;13.10;2.30;;;7.10;99.90;;;;;;5041995;28;20045;-93
2022/01/21 13:10:04;;;;;;;15.10;2.33;;;7.10;99.90;;;;;;5027599;28;20051;-92
2022/01/21 13:13:12;;;;;;;11.63;1.60;;;7.10;99.90;;;;;;5025681;28;20084;-93
2022/01/21 13:15:38;;;;;;;15.63;2.20;;;7.20;99.90;;;;;;5047257;28;20033;-94
2022/01/21 13:18:09;;;;;;;12.07;2.72;;;7.20;99.90;;;;;;5034166;28;20587;-93
2022/01/21 13:20:38;;;;;;;12.23;2.08;;;7.20;99.90;;;;;;5033540;28;20570;-95
2022/01/21 13:23:04;;;;;;;15.00;2.70;;;7.30;99.90;;;;;;5032945;28;20080;-93
2022/01/21 13:25:32;;;;;;;11.38;1.92;;;7.30;99.90;;;;;;5016976;28;20041;-92
2022/01/21 13:28:00;;;;;;;12.88;2.38;;;7.30;99.90;;;;;;5033297;28;20053;-93
2022/01/21 13:30:32;;;;;;;11.73;2.08;;;7.40;99.90;;;;;;5033240;28;20510;-93
2022/01/21 13:33:00;;;;;;;12.98;1.90;;;7.40;99.90;;;;;;5032913;28;20045;-93
2022/01/21 13:35:26;;;;;;;11.13;2.15;;;7.40;99.90;;;;;;5016895;28;20052;-93
2022/01/21 13:38:03;;;;;;;8.10;1.80;;;7.40;99.90;;;;;;5016912;28;20038;-93
2022/01/21 13:40:33;;;;;;;13.20;2.15;;;7.40;99.90;;;;;;5017077;28;20068;-93
2022/01/21 13:43:15;;;;;;;14.63;2.20;;;7.40;99.90;;;;;;5032842;28;20227;-93
2022/01/21 13:45:52;;;;;;;13.13;2.43;;;7.40;99.90;;;;;;5016904;28;20053;-93
2022/01/21 13:48:19;;;;;;;16.35;2.47;;;7.40;99.90;;;;;;5016473;28;20280;-94
2022/01/21 13:50:46;;;;;;;13.38;2.88;;;7.50;99.90;;;;;;5030594;28;20060;-94
2022/01/21 13:53:12;;;;;;;13.15;2.25;;;7.40;99.90;;;;;;5011244;28;20041;-93
2022/01/21 13:55:47;;;;;;;12.65;2.55;;;7.50;99.90;;;;;;5011667;28;20517;-93
2022/01/21 13:58:22;;;;;;;12.40;2.78;;;7.50;99.90;;;;;;5026819;28;20064;-93